Time;durP1;ratioP1;P1;durP2;ratioP2;P2;SDS_P1;SDS_P2;PMS_P1;PMS_P2;Temp;Humidity;BMP_temperature;BMP_pressure;BME280_temperature;BME280_humidity;BME280_pressure;Samples;Min_cycle;Max_cycle;Signal;HPM_P1;HPM_P2
2023/12/08 00:00:13;;;;;;;;;;;11.90;42.50;;;12.05;45.33;100142.91;5074359;28;19924;-35
2023/12/08 00:02:43;;;;;;;;;;;11.90;42.50;;;12.07;45.76;100138.97;5074092;28;20011;-35
2023/12/08 00:05:11;;;;;;;;;;;11.90;42.50;;;12.08;45.42;100133.22;5073918;28;19964;-35
2023/12/08 00:07:40;;;;;;;;;;;11.90;42.50;;;12.09;45.40;100119.94;5074304;28;19934;-35
2023/12/08 00:10:09;;;;;;;;;;;11.90;42.50;;;12.09;45.10;100112.41;5074073;28;19931;-35
2023/12/08 00:12:36;;;;;;;;;;;11.90;42.40;;;12.08;45.40;100118.16;5074037;28;20018;-35
2023/12/08 00:15:05;;;;;;;;;;;11.90;42.40;;;12.07;45.50;100106.34;5073803;28;19976;-35
2023/12/08 00:17:33;;;;;;;;;;;11.90;42.30;;;12.07;45.28;100106.34;5074102;28;19928;-35
2023/12/08 00:20:03;;;;;;;;;;;11.90;42.30;;;12.05;45.25;100092.69;5073948;28;19964;-35
2023/12/08 00:22:31;;;;;;;;;;;11.90;42.30;;;12.00;45.63;100082.84;5074465;28;19925;-34
2023/12/08 00:24:59;;;;;;;;;;;11.90;42.30;;;12.11;44.74;100082.47;5073646;28;20434;-35
2023/12/08 00:27:27;;;;;;;;;;;11.90;42.30;;;12.13;44.82;100087.66;5074340;28;19931;-35
2023/12/08 00:29:55;;;;;;;;;;;12.00;42.30;;;12.14;44.95;100079.41;5073819;28;19925;-35
2023/12/08 00:32:24;;;;;;;;;;;11.90;42.20;;;12.12;45.14;100073.31;5074206;28;19950;-35
2023/12/08 00:34:53;;;;;;;;;;;11.90;42.30;;;12.13;44.49;100081.03;5073529;28;19925;-35
2023/12/08 00:37:23;;;;;;;;;;;11.90;42.20;;;12.09;44.77;100074.75;5073863;28;20291;-35
2023/12/08 00:39:51;;;;;;;;;;;11.90;42.20;;;12.13;45.19;100073.50;5073496;28;20019;-35
2023/12/08 00:42:19;;;;;;;;;;;11.90;42.10;;;12.13;44.71;100070.09;5073931;28;19931;-36
2023/12/08 00:44:46;;;;;;;;;;;11.90;42.10;;;12.14;45.30;100066.88;5073993;28;19924;-35
2023/12/08 00:47:15;;;;;;;;;;;11.90;42.10;;;12.16;45.22;100057.88;5073408;28;19924;-35
2023/12/08 00:49:43;;;;;;;;;;;11.90;42.10;;;12.13;45.25;100067.56;5073560;28;20434;-35
2023/12/08 00:52:11;;;;;;;;;;;11.90;42.20;;;12.09;44.99;100059.69;5073409;28;20026;-35
2023/12/08 00:54:40;;;;;;;;;;;11.90;42.20;;;12.12;45.26;100054.13;5073047;28;19935;-35
2023/12/08 00:57:08;;;;;;;;;;;11.90;42.20;;;12.12;44.74;100053.22;5073502;28;19924;-35
2023/12/08 00:59:36;;;;;;;;;;;11.90;42.20;;;12.14;45.23;100042.63;5073583;28;19924;-35
2023/12/08 01:02:04;;;;;;;;;;;11.90;42.20;;;12.13;44.74;100030.81;5072578;28;19928;-35
2023/12/08 01:04:32;;;;;;;;;;;11.90;42.20;;;12.11;45.21;100033.84;5073203;28;19931;-35
2023/12/08 01:07:00;;;;;;;;;;;11.90;42.20;;;12.09;45.55;100019.50;5072907;28;19924;-35
2023/12/08 01:09:28;;;;;;;;;;;11.90;42.20;;;12.07;44.80;100018.44;5073002;28;19954;-35
2023/12/08 01:11:57;;;;;;;;;;;11.90;42.20;;;12.09;45.19;100014.47;5072868;28;20418;-35
2023/12/08 01:14:25;;;;;;;;;;;11.90;42.20;;;12.08;45.39;100007.66;5073370;28;19928;-34
2023/12/08 01:16:53;;;;;;;;;;;11.90;42.20;;;12.09;45.08;99993.50;5072812;28;20019;-34
2023/12/08 01:19:20;;;;;;;;;;;11.90;42.20;;;12.10;45.14;99990.25;5073086;28;19951;-34
2023/12/08 01:21:48;;;;;;;;;;;11.90;42.80;;;12.06;44.95;99994.06;5072553;28;19925;-34
2023/12/08 01:24:16;;;;;;;;;;;11.90;42.20;;;12.08;45.12;99981.66;5072763;28;19931;-34
2023/12/08 01:26:44;;;;;;;;;;;11.90;42.20;;;12.11;44.95;99966.94;5072626;28;19931;-34
2023/12/08 01:29:13;;;;;;;;;;;11.90;42.20;;;12.08;44.82;99966.59;5072639;28;19947;-34
2023/12/08 01:31:41;;;;;;;;;;;11.90;42.20;;;12.09;44.91;99959.22;5072741;28;19929;-35
2023/12/08 01:34:09;;;;;;;;;;;11.90;42.20;;;12.09;44.98;99954.22;5072128;28;20348;-35
2023/12/08 01:36:37;;;;;;;;;;;11.90;42.20;;;12.08;44.99;99957.44;5072715;28;19928;-34
2023/12/08 01:39:11;;;;;;;;;;;11.90;42.20;;;12.09;44.45;99964.25;5072244;28;20362;-36
2023/12/08 01:41:39;;;;;;;;;;;11.90;42.20;;;12.11;45.31;99979.50;5072286;28;20449;-34
2023/12/08 01:44:07;;;;;;;;;;;11.90;42.20;;;12.12;45.26;99996.38;5072104;28;19924;-35
2023/12/08 01:46:36;;;;;;;;;;;11.90;42.20;;;12.10;45.46;99987.75;5072219;28;20011;-34
2023/12/08 01:49:05;;;;;;;;;;;11.90;42.10;;;12.09;45.04;99986.84;5071943;28;19935;-35
2023/12/08 01:51:33;;;;;;;;;;;11.90;42.10;;;12.09;44.69;99981.84;5072100;28;19924;-35
2023/12/08 01:54:01;;;;;;;;;;;11.90;42.10;;;12.09;44.48;99984.34;5071737;28;20352;-35
2023/12/08 01:56:29;;;;;;;;;;;11.90;42.10;;;12.09;44.70;99969.28;5072246;28;19983;-34
2023/12/08 01:58:57;;;;;;;;;;;11.90;42.10;;;12.09;45.38;99979.31;5072070;28;19925;-34
2023/12/08 02:01:25;;;;;;;;;;;11.90;42.10;;;12.03;44.78;99973.63;5071883;28;19925;-34
2023/12/08 02:03:55;;;;;;;;;;;11.90;42.10;;;12.11;44.90;99997.09;5072147;28;19925;-34
2023/12/08 02:06:22;;;;;;;;;;;11.90;42.00;;;12.12;45.15;99977.91;5064239;28;19925;-35
2023/12/08 02:08:50;;;;;;;;;;;11.90;42.00;;;12.15;45.11;99963.16;5072112;28;19971;-34
2023/12/08 02:11:18;;;;;;;;;;;11.90;42.10;;;12.14;45.12;99961.38;5071965;28;20288;-35
2023/12/08 02:13:46;;;;;;;;;;;11.90;42.00;;;12.15;45.32;99956.50;5071793;28;20376;-35
2023/12/08 02:16:17;;;;;;;;;;;11.90;42.00;;;12.14;44.49;99947.19;5071589;28;19924;-35
2023/12/08 02:18:45;;;;;;;;;;;11.90;42.00;;;12.13;45.26;99939.50;5072107;28;20402;-36
2023/12/08 02:21:14;;;;;;;;;;;11.90;42.00;;;12.13;45.43;99934.50;5071739;28;20011;-35
2023/12/08 02:23:46;;;;;;;;;;;11.90;42.00;;;12.15;45.48;99938.03;5071894;28;19931;-35
2023/12/08 02:26:14;;;;;;;;;;;12.00;42.10;;;12.14;45.28;99936.28;5071701;28;20350;-34
2023/12/08 02:28:42;;;;;;;;;;;12.00;42.00;;;12.13;44.52;99937.91;5071688;28;19933;-35
2023/12/08 02:31:11;;;;;;;;;;;12.00;42.00;;;12.14;44.68;99931.25;5071746;28;19925;-34
2023/12/08 02:33:39;;;;;;;;;;;11.90;41.90;;;12.14;44.69;99926.25;5071831;28;19924;-35
2023/12/08 02:36:07;;;;;;;;;;;11.90;42.00;;;11.27;45.54;99778.34;5071777;28;19970;-35
2023/12/08 02:38:35;;;;;;;;;;;11.90;41.90;;;12.06;44.99;99907.78;5071899;28;19931;-35
2023/12/08 02:41:05;;;;;;;;;;;11.90;42.00;;;12.13;45.29;99914.41;5071386;28;19925;-35
2023/12/08 02:43:32;;;;;;;;;;;11.90;42.00;;;12.16;45.04;99904.69;5071859;28;19947;-35
2023/12/08 02:46:00;;;;;;;;;;;11.90;42.00;;;12.14;44.94;99901.13;5071512;28;19924;-35
2023/12/08 02:48:28;;;;;;;;;;;11.90;42.00;;;12.07;44.90;99895.41;5071579;28;20379;-35
2023/12/08 02:50:56;;;;;;;;;;;11.90;41.90;;;12.14;45.37;99891.06;5071839;28;19930;-35
2023/12/08 02:53:24;;;;;;;;;;;11.90;42.00;;;12.13;44.66;99902.75;5063421;28;19925;-34
2023/12/08 02:55:52;;;;;;;;;;;11.90;42.00;;;12.12;44.99;99912.59;5071378;28;19931;-34
2023/12/08 02:58:21;;;;;;;;;;;11.90;42.00;;;12.11;45.04;99915.84;5071743;28;20023;-34
2023/12/08 03:00:49;;;;;;;;;;;11.90;42.00;;;12.12;45.44;99921.03;5071365;28;19982;-35
2023/12/08 03:03:17;;;;;;;;;;;11.90;41.90;;;12.12;45.07;99926.06;5071396;28;19978;-35
2023/12/08 03:05:45;;;;;;;;;;;11.90;42.00;;;12.13;44.80;99911.88;5071435;28;19924;-34
2023/12/08 03:08:13;;;;;;;;;;;11.90;42.00;;;12.09;45.49;99909.00;5071148;28;20011;-34
2023/12/08 03:10:41;;;;;;;;;;;12.00;42.00;;;12.13;44.34;99915.28;5071654;28;20007;-35
2023/12/08 03:13:09;;;;;;;;;;;11.90;42.00;;;12.14;45.16;99911.16;5071354;28;19925;-36
2023/12/08 03:15:38;;;;;;;;;;;11.90;42.00;;;12.15;44.75;99908.81;5071125;28;19925;-36
2023/12/08 03:18:06;;;;;;;;;;;11.90;42.00;;;12.14;45.15;99907.00;5071419;28;20299;-35
2023/12/08 03:20:34;;;;;;;;;;;11.90;42.00;;;12.15;45.22;99902.88;5071163;28;20444;-34
2023/12/08 03:23:02;;;;;;;;;;;12.00;42.00;;;12.15;44.32;99912.94;5071261;28;19924;-35
2023/12/08 03:25:30;;;;;;;;;;;12.00;42.00;;;12.14;45.31;99916.19;5074420;28;20015;-35
2023/12/08 03:27:58;;;;;;;;;;;12.00;42.00;;;12.15;44.98;99890.31;5074989;28;19933;-34
2023/12/08 03:30:26;;;;;;;;;;;12.00;42.00;;;12.14;45.14;99881.03;5066719;28;19932;-35
2023/12/08 03:32:56;;;;;;;;;;;12.00;42.10;;;12.14;45.18;99883.53;5074811;28;19939;-35
2023/12/08 03:35:23;;;;;;;;;;;12.00;42.00;;;12.14;45.36;99886.06;5074285;28;20015;-35
2023/12/08 03:37:51;;;;;;;;;;;12.00;42.00;;;12.14;44.88;99881.03;5074600;28;19925;-35
2023/12/08 03:40:19;;;;;;;;;;;11.90;41.90;;;12.14;45.08;99873.50;5074464;28;19924;-35
2023/12/08 03:42:47;;;;;;;;;;;12.00;42.10;;;12.15;44.69;99875.25;5074735;28;19931;-35
2023/12/08 03:45:15;;;;;;;;;;;12.00;42.00;;;12.16;44.47;99874.53;5074214;28;19944;-34
2023/12/08 03:47:43;;;;;;;;;;;12.00;42.00;;;12.15;45.12;99878.66;5074196;28;20453;-35
2023/12/08 03:50:13;;;;;;;;;;;12.00;42.00;;;12.17;44.64;99886.38;5074476;28;19947;-34
2023/12/08 03:52:41;;;;;;;;;;;12.00;42.00;;;12.19;45.14;99895.00;5074563;28;19924;-35
2023/12/08 03:55:09;;;;;;;;;;;12.00;42.00;;;12.18;44.58;99883.16;5074260;28;19924;-35
2023/12/08 03:57:37;;;;;;;;;;;12.00;41.90;;;12.20;44.47;99876.69;5074435;28;20004;-36
2023/12/08 04:00:07;;;;;;;;;;;12.00;41.90;;;12.23;45.08;99882.03;5074483;28;20030;-36
2023/12/08 04:02:35;;;;;;;;;;;12.00;41.90;;;12.14;44.83;99864.31;5077465;28;19998;-35
2023/12/08 04:05:03;;;;;;;;;;;12.00;41.90;;;12.20;44.54;99879.19;5076914;28;20011;-35
2023/12/08 04:07:32;;;;;;;;;;;12.00;41.90;;;12.20;44.59;99874.19;5075994;28;19967;-35
2023/12/08 04:10:00;;;;;;;;;;;12.00;41.80;;;12.22;44.40;99880.25;5076319;28;19925;-35
2023/12/08 04:12:28;;;;;;;;;;;12.00;41.90;;;12.23;44.99;99877.00;5074601;28;19924;-35
2023/12/08 04:14:56;;;;;;;;;;;12.00;41.80;;;12.19;44.58;99879.91;5074596;28;19931;-35
2023/12/08 04:17:24;;;;;;;;;;;12.00;41.90;;;12.19;44.57;99879.91;5074078;28;19983;-34
2023/12/08 04:19:52;;;;;;;;;;;12.00;41.80;;;12.22;44.60;99882.75;5074328;28;19986;-35
2023/12/08 04:22:20;;;;;;;;;;;12.00;41.90;;;12.23;45.21;99887.06;5073817;28;20404;-35
2023/12/08 04:24:49;;;;;;;;;;;12.00;41.90;;;12.21;45.09;99888.50;5073696;28;20357;-35
2023/12/08 04:27:17;;;;;;;;;;;12.00;41.90;;;12.19;44.89;99900.00;5073678;28;19931;-35
2023/12/08 04:29:45;;;;;;;;;;;12.00;41.90;;;12.22;44.24;99905.34;5073996;28;19928;-35
2023/12/08 04:32:13;;;;;;;;;;;12.00;41.80;;;12.20;44.23;99904.31;5073919;28;19978;-35
2023/12/08 04:34:41;;;;;;;;;;;12.00;41.90;;;11.45;45.23;99789.56;5073350;28;20011;-35
2023/12/08 04:37:09;;;;;;;;;;;12.00;41.80;;;12.18;44.91;99899.13;5072892;28;19970;-35
2023/12/08 04:39:37;;;;;;;;;;;12.00;41.90;;;12.18;45.18;99903.25;5073611;28;20015;-35
2023/12/08 04:42:06;;;;;;;;;;;12.00;41.90;;;12.18;44.80;99913.28;5073258;28;19984;-35
2023/12/08 04:44:34;;;;;;;;;;;12.00;41.90;;;12.15;44.80;99903.78;5073506;28;20015;-35
2023/12/08 04:47:02;;;;;;;;;;;12.00;41.90;;;12.15;45.28;99902.88;5073328;28;19924;-34
2023/12/08 04:49:30;;;;;;;;;;;12.00;42.00;;;12.16;44.60;99914.72;5073357;28;20011;-35
2023/12/08 04:51:58;;;;;;;;;;;12.00;42.00;;;12.18;44.11;99913.28;5073279;28;19925;-35
2023/12/08 04:54:26;;;;;;;;;;;12.00;42.00;;;12.16;44.97;99897.16;5072989;28;20368;-35
2023/12/08 04:56:54;;;;;;;;;;;12.00;41.90;;;12.15;44.96;99912.94;5073237;28;19939;-34
2023/12/08 04:59:23;;;;;;;;;;;11.90;41.90;;;11.65;44.49;99820.28;5073089;28;19970;-35
2023/12/08 05:01:51;;;;;;;;;;;12.00;42.00;;;12.18;44.51;99908.25;5073185;28;19931;-35
2023/12/08 05:04:19;;;;;;;;;;;11.90;41.90;;;12.18;45.29;99903.25;5072624;28;19924;-35
2023/12/08 05:06:47;;;;;;;;;;;11.90;41.90;;;12.06;44.56;99876.06;5072908;28;19931;-35
2023/12/08 05:09:15;;;;;;;;;;;12.00;42.00;;;12.18;44.75;99893.19;5073072;28;19928;-35
2023/12/08 05:11:43;;;;;;;;;;;12.00;41.90;;;12.17;45.18;99891.41;5073041;28;20414;-34
2023/12/08 05:14:11;;;;;;;;;;;12.00;41.90;;;12.18;44.23;99884.06;5072728;28;19947;-35
2023/12/08 05:16:40;;;;;;;;;;;12.00;41.80;;;12.19;44.43;99882.44;5072818;28;20495;-35
2023/12/08 05:19:09;;;;;;;;;;;12.00;41.80;;;12.19;44.70;99880.81;5072693;28;19924;-35
2023/12/08 05:21:37;;;;;;;;;;;12.00;41.80;;;12.20;44.38;99877.59;5072860;28;20342;-35
2023/12/08 05:24:05;;;;;;;;;;;12.00;41.80;;;12.23;44.40;99882.03;5072206;28;20086;-35
2023/12/08 05:26:34;;;;;;;;;;;12.00;41.70;;;12.22;45.16;99885.25;5064715;28;20046;-35
2023/12/08 05:29:02;;;;;;;;;;;12.00;41.70;;;12.22;44.56;99880.25;5072632;28;19986;-36
2023/12/08 05:31:29;;;;;;;;;;;12.00;41.70;;;12.22;44.68;99880.25;5072569;28;20324;-35
2023/12/08 05:33:59;;;;;;;;;;;12.00;41.70;;;12.23;44.57;99887.06;5072072;28;19924;-35
2023/12/08 05:36:28;;;;;;;;;;;12.00;41.70;;;12.23;44.28;99887.06;5072449;28;19940;-34
2023/12/08 05:38:56;;;;;;;;;;;12.00;41.60;;;12.22;44.29;99895.31;5072486;28;19925;-35
2023/12/08 05:41:24;;;;;;;;;;;12.00;41.60;;;12.23;44.25;99897.09;5072321;28;19924;-34
2023/12/08 05:43:51;;;;;;;;;;;12.00;41.70;;;12.22;45.09;99890.28;5071998;28;19931;-35
2023/12/08 05:46:19;;;;;;;;;;;12.00;41.60;;;12.22;44.50;99891.19;5071629;28;19924;-35
2023/12/08 05:48:47;;;;;;;;;;;12.00;41.70;;;12.21;44.28;99888.50;5072377;28;19929;-34
2023/12/08 05:51:17;;;;;;;;;;;12.00;41.70;;;12.23;44.48;99892.09;5072178;28;19924;-34
2023/12/08 05:53:45;;;;;;;;;;;12.00;41.70;;;12.22;45.04;99892.81;5072493;28;19972;-34
2023/12/08 05:56:13;;;;;;;;;;;12.00;41.70;;;12.23;44.92;99882.03;5072021;28;19932;-35
2023/12/08 05:58:41;;;;;;;;;;;12.00;41.70;;;12.23;44.08;99897.09;5072181;28;20291;-35
2023/12/08 06:01:10;;;;;;;;;;;12.00;41.70;;;12.22;45.06;99885.25;5071708;28;20008;-35
2023/12/08 06:03:37;;;;;;;;;;;12.00;41.70;;;12.20;44.07;99884.22;5072378;28;20015;-34
2023/12/08 06:06:06;;;;;;;;;;;12.00;41.80;;;12.20;45.06;99881.72;5072353;28;19970;-34
2023/12/08 06:08:35;;;;;;;;;;;12.00;42.40;;;12.20;44.17;99876.69;5064367;28;19958;-35
2023/12/08 06:11:04;;;;;;;;;;;12.00;41.80;;;12.18;44.72;99868.09;5072595;28;19963;-36
2023/12/08 06:13:32;;;;;;;;;;;12.00;41.80;;;12.21;44.49;99873.44;5072964;28;19925;-34
2023/12/08 06:16:00;;;;;;;;;;;12.00;41.90;;;12.20;45.20;99871.66;5072370;28;19928;-35
2023/12/08 06:18:28;;;;;;;;;;;12.00;41.90;;;12.19;44.64;99869.88;5071881;28;19924;-35
2023/12/08 06:20:56;;;;;;;;;;;12.00;41.90;;;12.19;44.74;99869.88;5072072;28;19931;-34
2023/12/08 06:23:24;;;;;;;;;;;12.00;41.90;;;12.19;45.25;99864.84;5071601;28;19928;-35
2023/12/08 06:25:53;;;;;;;;;;;12.00;41.90;;;12.20;44.27;99861.63;5071522;28;19925;-35
2023/12/08 06:28:21;;;;;;;;;;;12.00;41.90;;;12.20;45.18;99856.59;5072074;28;19932;-35
2023/12/08 06:30:49;;;;;;;;;;;12.00;41.90;;;12.20;44.76;99857.50;5072138;28;19925;-35
2023/12/08 06:33:17;;;;;;;;;;;12.00;41.90;;;12.19;44.32;99854.81;5072231;28;19924;-35
2023/12/08 06:35:45;;;;;;;;;;;12.00;41.90;;;12.19;44.62;99854.81;5071442;28;20348;-35
2023/12/08 06:38:13;;;;;;;;;;;12.00;41.90;;;12.19;45.20;99849.78;5071946;28;19924;-35
2023/12/08 06:40:41;;;;;;;;;;;12.00;41.90;;;12.21;44.36;99853.34;5071801;28;20007;-35
2023/12/08 06:43:10;;;;;;;;;;;12.00;41.90;;;12.20;44.91;99856.59;5071900;28;19924;-35
2023/12/08 06:45:38;;;;;;;;;;;12.00;41.90;;;12.19;45.03;99853.19;5071279;28;19972;-34
2023/12/08 06:48:07;;;;;;;;;;;12.00;41.80;;;12.20;45.17;99856.59;5071767;28;19947;-35
2023/12/08 06:50:35;;;;;;;;;;;12.00;41.90;;;12.21;44.59;99861.75;5071831;28;19929;-35
2023/12/08 06:53:03;;;;;;;;;;;12.00;41.80;;;12.24;44.58;99859.59;5071447;28;19979;-35
2023/12/08 06:55:31;;;;;;;;;;;12.10;41.90;;;12.24;45.09;99858.72;5071161;28;19932;-35
2023/12/08 06:57:58;;;;;;;;;;;12.00;41.90;;;12.25;44.54;99863.03;5071604;28;19925;-35
2023/12/08 07:00:28;;;;;;;;;;;12.00;41.90;;;12.23;44.84;99867.88;5074903;28;20303;-35
2023/12/08 07:02:56;;;;;;;;;;;12.10;41.90;;;12.21;44.23;99850.81;5075615;28;20407;-35
2023/12/08 07:05:24;;;;;;;;;;;12.00;41.90;;;12.23;45.21;99851.91;5075056;28;19924;-35
2023/12/08 07:07:52;;;;;;;;;;;12.00;41.90;;;12.21;44.90;99853.34;5075176;28;19929;-35
2023/12/08 07:10:20;;;;;;;;;;;12.00;41.90;;;12.22;45.09;99852.63;5075341;28;19924;-35
2023/12/08 07:12:48;;;;;;;;;;;12.00;41.90;;;12.21;44.99;99863.38;5075544;28;19931;-35
2023/12/08 07:15:16;;;;;;;;;;;12.00;41.90;;;12.19;44.71;99870.78;5075097;28;19935;-35
2023/12/08 07:17:45;;;;;;;;;;;12.00;41.90;;;12.20;44.78;99871.66;5075324;28;19932;-35
2023/12/08 07:20:18;;;;;;;;;;;12.00;41.90;;;12.20;45.07;99871.66;5074054;28;20259;-34
2023/12/08 07:22:46;;;;;;;;;;;12.00;41.90;;;12.18;44.73;99878.13;5075298;28;19972;-35
2023/12/08 07:25:14;;;;;;;;;;;12.00;41.90;;;12.22;44.92;99880.25;5074612;28;19928;-35
2023/12/08 07:27:43;;;;;;;;;;;12.00;42.00;;;12.24;44.48;99873.78;5075034;28;20045;-35
2023/12/08 07:30:11;;;;;;;;;;;12.00;42.00;;;12.23;44.98;99877.00;5075993;28;20598;-32
2023/12/08 07:32:40;;;;;;;;;;;12.00;42.00;;;12.22;44.27;99875.22;5067503;28;19924;-32
2023/12/08 07:35:09;;;;;;;;;;;12.00;42.00;;;12.20;44.88;99881.72;5075301;28;19985;-31
2023/12/08 07:37:39;;;;;;;;;;;12.00;42.60;;;12.21;44.77;99885.97;5074610;28;20402;-35
2023/12/08 07:40:09;;;;;;;;;;;12.00;42.00;;;12.22;44.71;99882.75;5075557;28;19924;-34
2023/12/08 07:42:37;;;;;;;;;;;12.00;42.00;;;12.16;45.23;99875.44;5074448;28;20295;-31
2023/12/08 07:45:06;;;;;;;;;;;12.00;42.00;;;12.26;44.86;99899.97;5074270;28;20376;-32
2023/12/08 07:47:34;;;;;;;;;;;12.00;42.00;;;12.24;44.39;99911.47;5074294;28;19932;-31
2023/12/08 07:50:03;;;;;;;;;;;12.00;42.00;;;12.23;44.42;99918.09;5074864;28;19925;-30
2023/12/08 07:52:32;;;;;;;;;;;12.00;41.90;;;12.23;44.70;99939.81;5074679;28;19924;-32
2023/12/08 07:55:00;;;;;;;;;;;12.00;42.00;;;12.24;44.38;99916.47;5074527;28;20015;-31
2023/12/08 07:57:28;;;;;;;;;;;12.00;42.00;;;12.24;44.92;99924.00;5074530;28;19925;-33
2023/12/08 07:59:56;;;;;;;;;;;12.10;42.00;;;12.25;45.13;99918.28;5074316;28;19968;-34
2023/12/08 08:02:24;;;;;;;;;;;12.10;42.00;;;12.27;44.31;99910.16;5074436;28;19925;-34
2023/12/08 08:04:52;;;;;;;;;;;12.10;41.90;;;12.27;44.56;99899.22;5074153;28;19925;-31
2023/12/08 08:07:20;;;;;;;;;;;12.10;42.00;;;12.27;44.64;99894.19;5073918;28;19934;-32
2023/12/08 08:09:49;;;;;;;;;;;12.10;41.90;;;12.27;44.83;99899.22;5074073;28;19925;-34
2023/12/08 08:12:17;;;;;;;;;;;12.10;41.90;;;12.28;44.93;99880.91;5073882;28;20396;-31
2023/12/08 08:14:45;;;;;;;;;;;12.10;41.90;;;12.28;45.33;99896.88;5073983;28;19924;-31
2023/12/08 08:17:13;;;;;;;;;;;12.10;41.90;;;12.24;44.97;99883.84;5074061;28;19970;-32
2023/12/08 08:19:41;;;;;;;;;;;12.10;41.90;;;12.29;45.11;99897.78;5065769;28;20007;-31
2023/12/08 08:22:09;;;;;;;;;;;12.10;41.90;;;12.27;45.46;99884.16;5073857;28;20340;-31
2023/12/08 08:24:59;;;;;;;;;;;12.10;41.90;;;12.26;44.54;99887.41;5067612;28;20706;-31
2023/12/08 08:27:27;;;;;;;;;;;12.10;41.90;;;12.28;44.32;99890.97;5073650;28;19932;-31
2023/12/08 08:29:55;;;;;;;;;;;12.10;42.00;;;10.82;44.97;99633.69;5074071;28;20356;-31
2023/12/08 08:32:23;;;;;;;;;;;12.10;42.00;;;12.26;44.21;99884.91;5073673;28;19924;-33
2023/12/08 08:34:52;;;;;;;;;;;12.10;42.00;;;12.25;45.32;99891.53;5073535;28;19925;-33
2023/12/08 08:37:23;;;;;;;;;;;12.10;42.00;;;12.26;45.24;99882.38;5073146;28;20011;-31
2023/12/08 08:39:52;;;;;;;;;;;12.10;42.00;;;12.26;44.89;99889.94;5074210;28;19924;-31
2023/12/08 08:42:21;;;;;;;;;;;12.10;42.10;;;12.24;44.73;99888.84;5073449;28;19936;-31
2023/12/08 08:44:49;;;;;;;;;;;12.10;42.10;;;12.21;45.09;99889.41;5073397;28;19924;-31
2023/12/08 08:47:19;;;;;;;;;;;12.00;42.00;;;12.20;45.40;99886.75;5070885;28;19958;-43
2023/12/08 08:49:46;;;;;;;;;;;12.10;42.10;;;12.20;45.19;99881.72;5073072;28;20380;-37
2023/12/08 08:52:15;;;;;;;;;;;12.10;42.10;;;12.17;45.02;99891.41;5094819;22;19924;-34
2023/12/08 08:54:43;;;;;;;;;;;12.00;42.10;;;12.20;45.06;99902.69;5065064;28;20031;-34
2023/12/08 08:57:11;;;;;;;;;;;12.00;42.10;;;12.20;45.30;99904.31;5073365;28;19978;-34
2023/12/08 08:59:40;;;;;;;;;;;12.00;42.10;;;12.18;45.26;99891.59;5064917;28;19925;-35
2023/12/08 09:02:08;;;;;;;;;;;12.00;42.10;;;12.17;44.60;99891.41;5066019;28;19924;-35
2023/12/08 09:04:36;;;;;;;;;;;12.00;42.10;;;12.17;44.96;99892.31;5052983;28;19924;-35
2023/12/08 09:07:04;;;;;;;;;;;12.00;42.10;;;12.17;44.84;99894.81;5052982;28;19925;-35
2023/12/08 09:09:33;;;;;;;;;;;12.00;42.10;;;12.19;44.57;99895.00;5053080;28;19998;-35
2023/12/08 09:12:01;;;;;;;;;;;12.00;42.10;;;12.18;44.98;99903.25;5061193;28;20002;-35
2023/12/08 09:14:30;;;;;;;;;;;12.00;42.20;;;12.15;45.23;99892.84;5052712;28;20360;-35
2023/12/08 09:17:02;;;;;;;;;;;12.00;42.20;;;12.15;44.76;99892.84;5052762;28;20035;-35
2023/12/08 09:19:30;;;;;;;;;;;12.00;42.20;;;12.08;45.21;99899.69;5052975;28;19932;-35
2023/12/08 09:21:58;;;;;;;;;;;11.90;42.20;;;12.02;45.88;99915.69;5052122;28;20396;-35
2023/12/08 09:24:26;;;;;;;;;;;11.90;42.30;;;11.94;45.53;99927.41;5052476;28;19982;-35
2023/12/08 09:26:54;;;;;;;;;;;11.80;42.50;;;11.88;45.40;99924.19;5052781;28;20023;-35
2023/12/08 09:29:22;;;;;;;;;;;11.70;42.60;;;11.83;45.55;99917.75;5052538;28;19964;-35
2023/12/08 09:31:50;;;;;;;;;;;11.70;42.70;;;11.78;46.14;99923.88;5057093;28;19925;-35
2023/12/08 09:34:19;;;;;;;;;;;11.60;42.70;;;11.74;46.22;99925.88;5056092;28;19972;-35
2023/12/08 09:36:47;;;;;;;;;;;11.60;42.90;;;11.71;46.25;99926.38;5052895;28;19925;-35
2023/12/08 09:39:35;;;;;;;;;;;11.50;42.90;;;11.67;45.92;99930.16;5061079;28;19924;-35
2023/12/08 09:42:07;;;;;;;;;;;11.50;42.90;;;11.65;45.74;99930.69;5052757;28;19975;-35
2023/12/08 09:44:35;;;;;;;;;;;11.50;43.00;;;11.64;46.30;99928.88;5052634;28;19925;-35
2023/12/08 09:47:04;;;;;;;;;;;11.50;43.10;;;11.64;45.97;99928.88;5052584;28;19925;-35
2023/12/08 09:49:44;;;;;;;;;;;11.50;43.10;;;11.63;45.74;99927.13;5052237;28;20011;-36
2023/12/08 09:52:12;;;;;;;;;;;11.50;43.10;;;11.63;46.72;99933.00;5052846;28;20238;-36
2023/12/08 09:54:40;;;;;;;;;;;11.50;43.10;;;11.67;46.34;99919.22;5054530;28;20344;-36
2023/12/08 09:57:08;;;;;;;;;;;11.50;43.10;;;11.69;46.73;99917.78;5057617;28;20035;-36
2023/12/08 09:59:38;;;;;;;;;;;11.50;43.10;;;11.73;45.72;99924.94;5060539;28;20355;-35
2023/12/08 10:02:07;;;;;;;;;;;11.50;43.10;;;11.81;46.15;99925.84;5060701;28;19968;-35
2023/12/08 10:04:36;;;;;;;;;;;11.60;43.00;;;11.98;45.05;99922.00;5062171;28;19929;-35
2023/12/08 10:07:04;;;;;;;;;;;11.80;42.80;;;12.23;45.15;99924.72;5058741;28;19975;-36
2023/12/08 10:09:32;;;;;;;;;;;12.00;42.50;;;12.43;44.31;99917.78;5054794;28;19980;-36
2023/12/08 10:12:00;;;;;;;;;;;12.20;42.10;;;12.61;44.22;99914.78;5054901;28;20015;-36
2023/12/08 10:14:29;;;;;;;;;;;12.30;41.70;;;12.70;44.06;99908.28;5052247;28;19932;-36
2023/12/08 10:16:56;;;;;;;;;;;12.50;41.60;;;12.80;43.16;99903.50;5057198;28;20008;-36
2023/12/08 10:19:24;;;;;;;;;;;12.60;41.40;;;12.90;42.87;99911.31;5054729;28;19929;-36
2023/12/08 10:22:00;;;;;;;;;;;12.60;41.10;;;12.93;43.77;99904.84;5052229;28;19979;-35
2023/12/08 10:24:29;;;;;;;;;;;12.70;41.10;;;12.92;43.47;99908.09;5051844;28;19924;-35
2023/12/08 10:26:57;;;;;;;;;;;12.70;41.10;;;12.93;43.63;99899.81;5051911;28;19925;-35
2023/12/08 10:29:30;;;;;;;;;;;12.70;40.90;;;12.94;43.03;99906.63;5052064;28;19971;-35
2023/12/08 10:31:58;;;;;;;;;;;12.70;40.90;;;12.89;43.51;99898.59;5060321;28;19924;-35
2023/12/08 10:34:26;;;;;;;;;;;12.70;41.00;;;12.90;43.32;99898.75;5053696;28;20012;-35
2023/12/08 10:36:54;;;;;;;;;;;12.70;41.10;;;12.84;44.39;99905.63;5056184;28;19978;-35
2023/12/08 10:39:25;;;;;;;;;;;12.70;41.10;;;12.83;44.09;99902.97;5055864;28;19925;-35
2023/12/08 10:41:53;;;;;;;;;;;12.70;41.20;;;12.79;43.68;99901.72;5056219;28;19931;-36
2023/12/08 10:44:21;;;;;;;;;;;12.60;41.20;;;12.73;43.85;99896.03;5055552;28;20296;-35
2023/12/08 10:46:53;;;;;;;;;;;12.60;41.30;;;12.67;44.42;99900.38;5055982;28;19924;-35
2023/12/08 10:49:21;;;;;;;;;;;12.50;41.50;;;12.62;44.38;99901.50;5056703;28;19960;-35
2023/12/08 10:51:50;;;;;;;;;;;12.40;41.50;;;12.57;44.03;99894.19;5058626;28;19925;-35
2023/12/08 10:54:18;;;;;;;;;;;12.40;41.60;;;12.54;43.72;99902.28;5066688;28;19928;-35
2023/12/08 10:56:48;;;;;;;;;;;12.40;41.80;;;12.51;44.70;99911.13;5060986;28;20486;-35
2023/12/08 10:59:17;;;;;;;;;;;12.30;41.80;;;12.46;43.94;99908.06;5061834;28;19924;-35
2023/12/08 11:01:45;;;;;;;;;;;12.30;41.90;;;12.41;45.11;99911.69;5063424;28;19925;-36
2023/12/08 11:04:13;;;;;;;;;;;12.20;42.00;;;12.40;44.34;99913.31;5058864;28;19974;-35
2023/12/08 11:06:44;;;;;;;;;;;12.20;42.10;;;12.37;44.37;99907.06;5063524;28;20371;-35
2023/12/08 11:09:12;;;;;;;;;;;12.10;42.10;;;12.30;44.93;99900.47;5062150;28;19924;-35
2023/12/08 11:11:43;;;;;;;;;;;12.10;42.20;;;12.28;44.58;99911.97;5056554;28;19925;-35
2023/12/08 11:14:14;;;;;;;;;;;12.10;42.30;;;12.23;45.05;99907.16;5055498;28;20435;-35
2023/12/08 11:16:45;;;;;;;;;;;12.10;42.30;;;12.20;44.72;99901.81;5055586;28;19971;-35
2023/12/08 11:19:13;;;;;;;;;;;12.00;42.40;;;12.20;44.81;99901.81;5064075;28;19924;-35
2023/12/08 11:21:41;;;;;;;;;;;12.00;42.40;;;12.13;45.14;99889.28;5056671;28;19925;-35